sensor_id;sensor_type;location;lat;lon;timestamp;pressure;altitude;pressure_sealevel;temperature;humidity
38852;BME280;24605;50.092;9.182;2023-01-31T00:01:40;98528.94;;;1.86;100.00
38852;BME280;24605;50.092;9.182;2023-01-31T00:04:10;98610.91;;;2.39;100.00
38852;BME280;24605;50.092;9.182;2023-01-31T00:06:39;98612.31;;;2.30;100.00
38852;BME280;24605;50.092;9.182;2023-01-31T00:09:07;98618.63;;;2.26;100.00
38852;BME280;24605;50.092;9.182;2023-01-31T00:11:36;98611.38;;;2.18;100.00
38852;BME280;24605;50.092;9.182;2023-01-31T00:14:04;98619.03;;;2.20;100.00
38852;BME280;24605;50.092;9.182;2023-01-31T00:16:31;98611.47;;;2.17;100.00
38852;BME280;24605;50.092;9.182;2023-01-31T00:18:58;98598.50;;;2.04;100.00
38852;BME280;24605;50.092;9.182;2023-01-31T00:21:26;98547.41;;;1.67;100.00
38852;BME280;24605;50.092;9.182;2023-01-31T00:23:54;98604.59;;;2.03;100.00
38852;BME280;24605;50.092;9.182;2023-01-31T00:26:22;98602.19;;;2.00;100.00
38852;BME280;24605;50.092;9.182;2023-01-31T00:28:52;98519.63;;;1.56;100.00
38852;BME280;24605;50.092;9.182;2023-01-31T00:31:20;98606.16;;;2.06;100.00
38852;BME280;24605;50.092;9.182;2023-01-31T00:33:47;98594.44;;;2.00;100.00
38852;BME280;24605;50.092;9.182;2023-01-31T00:36:16;98614.84;;;2.04;100.00
38852;BME280;24605;50.092;9.182;2023-01-31T00:38:43;98623.50;;;2.03;100.00
38852;BME280;24605;50.092;9.182;2023-01-31T00:41:10;98617.09;;;1.96;100.00
38852;BME280;24605;50.092;9.182;2023-01-31T00:43:37;98598.31;;;1.80;100.00
38852;BME280;24605;50.092;9.182;2023-01-31T00:46:05;98534.75;;;1.35;100.00
38852;BME280;24605;50.092;9.182;2023-01-31T00:48:32;98630.94;;;1.95;100.00
38852;BME280;24605;50.092;9.182;2023-01-31T00:50:59;98620.81;;;1.92;100.00
38852;BME280;24605;50.092;9.182;2023-01-31T00:53:26;98527.91;;;1.34;100.00
38852;BME280;24605;50.092;9.182;2023-01-31T00:55:54;98600.25;;;1.76;100.00
38852;BME280;24605;50.092;9.182;2023-01-31T00:58:21;98601.28;;;1.74;100.00
38852;BME280;24605;50.092;9.182;2023-01-31T01:00:48;98619.53;;;1.85;100.00
38852;BME280;24605;50.092;9.182;2023-01-31T01:03:16;98609.09;;;1.86;100.00
38852;BME280;24605;50.092;9.182;2023-01-31T01:05:43;98590.53;;;1.80;100.00
38852;BME280;24605;50.092;9.182;2023-01-31T01:08:10;98597.38;;;1.81;100.00
38852;BME280;24605;50.092;9.182;2023-01-31T01:10:37;98619.13;;;1.91;100.00
38852;BME280;24605;50.092;9.182;2023-01-31T01:13:04;98583.47;;;1.69;100.00
38852;BME280;24605;50.092;9.182;2023-01-31T01:15:30;98613.69;;;1.81;100.00
38852;BME280;24605;50.092;9.182;2023-01-31T01:17:57;98633.38;;;1.84;100.00
38852;BME280;24605;50.092;9.182;2023-01-31T01:20:25;98587.38;;;1.47;100.00
38852;BME280;24605;50.092;9.182;2023-01-31T01:22:52;98605.75;;;1.57;100.00
38852;BME280;24605;50.092;9.182;2023-01-31T01:25:19;98643.00;;;1.82;100.00
38852;BME280;24605;50.092;9.182;2023-01-31T01:27:46;98613.13;;;1.63;100.00
38852;BME280;24605;50.092;9.182;2023-01-31T01:30:12;98649.81;;;1.83;100.00
38852;BME280;24605;50.092;9.182;2023-01-31T01:32:39;98651.78;;;1.79;100.00
38852;BME280;24605;50.092;9.182;2023-01-31T01:35:06;98633.13;;;1.74;100.00
38852;BME280;24605;50.092;9.182;2023-01-31T01:37:35;98634.66;;;1.77;100.00
38852;BME280;24605;50.092;9.182;2023-01-31T01:40:02;98650.63;;;1.83;100.00
38852;BME280;24605;50.092;9.182;2023-01-31T01:42:33;98612.22;;;1.50;100.00
38852;BME280;24605;50.092;9.182;2023-01-31T01:45:02;98613.16;;;1.49;100.00
38852;BME280;24605;50.092;9.182;2023-01-31T01:47:34;98653.59;;;1.77;100.00
38852;BME280;24605;50.092;9.182;2023-01-31T01:50:07;98649.66;;;1.71;100.00
38852;BME280;24605;50.092;9.182;2023-01-31T01:52:41;98577.56;;;1.25;100.00
38852;BME280;24605;50.092;9.182;2023-01-31T01:55:16;98663.59;;;1.69;100.00
38852;BME280;24605;50.092;9.182;2023-01-31T01:57:46;98648.03;;;1.56;100.00
38852;BME280;24605;50.092;9.182;2023-01-31T02:00:19;98665.72;;;1.62;100.00
38852;BME280;24605;50.092;9.182;2023-01-31T02:02:48;98669.16;;;1.63;100.00
38852;BME280;24605;50.092;9.182;2023-01-31T02:05:19;98609.47;;;1.24;100.00
38852;BME280;24605;50.092;9.182;2023-01-31T02:07:48;98632.16;;;1.33;100.00
38852;BME280;24605;50.092;9.182;2023-01-31T02:10:16;98673.47;;;1.62;100.00
38852;BME280;24605;50.092;9.182;2023-01-31T02:12:46;98638.16;;;1.34;100.00
38852;BME280;24605;50.092;9.182;2023-01-31T02:15:13;98653.38;;;1.53;100.00
38852;BME280;24605;50.092;9.182;2023-01-31T02:17:40;98677.06;;;1.74;100.00
38852;BME280;24605;50.092;9.182;2023-01-31T02:20:20;98688.88;;;1.78;100.00
38852;BME280;24605;50.092;9.182;2023-01-31T02:23:02;98621.66;;;1.36;100.00
38852;BME280;24605;50.092;9.182;2023-01-31T02:26:00;98675.66;;;1.68;100.00
38852;BME280;24605;50.092;9.182;2023-01-31T02:28:48;98641.47;;;1.50;100.00
38852;BME280;24605;50.092;9.182;2023-01-31T02:34:27;98659.81;;;1.60;100.00
38852;BME280;24605;50.092;9.182;2023-01-31T02:37:02;98615.56;;;1.37;100.00
38852;BME280;24605;50.092;9.182;2023-01-31T02:39:39;98664.22;;;1.72;100.00
38852;BME280;24605;50.092;9.182;2023-01-31T02:42:13;98653.94;;;1.58;100.00
38852;BME280;24605;50.092;9.182;2023-01-31T02:44:48;98618.03;;;1.39;100.00
38852;BME280;24605;50.092;9.182;2023-01-31T02:47:32;98659.75;;;1.62;100.00
38852;BME280;24605;50.092;9.182;2023-01-31T02:50:10;98608.38;;;1.28;100.00
38852;BME280;24605;50.092;9.182;2023-01-31T02:52:43;98576.09;;;1.06;100.00
38852;BME280;24605;50.092;9.182;2023-01-31T02:55:15;98674.22;;;1.64;100.00
38852;BME280;24605;50.092;9.182;2023-01-31T02:58:02;98680.31;;;1.63;100.00
38852;BME280;24605;50.092;9.182;2023-01-31T03:00:32;98690.47;;;1.66;100.00
38852;BME280;24605;50.092;9.182;2023-01-31T03:02:59;98674.97;;;1.66;100.00
38852;BME280;24605;50.092;9.182;2023-01-31T03:05:27;98688.06;;;1.63;100.00
38852;BME280;24605;50.092;9.182;2023-01-31T03:07:56;98669.72;;;1.53;100.00
38852;BME280;24605;50.092;9.182;2023-01-31T03:10:38;98687.06;;;1.51;100.00
38852;BME280;24605;50.092;9.182;2023-01-31T03:13:21;98691.84;;;1.43;100.00
38852;BME280;24605;50.092;9.182;2023-01-31T03:15:58;98641.38;;;1.08;100.00
38852;BME280;24605;50.092;9.182;2023-01-31T03:18:50;98699.88;;;1.38;100.00
38852;BME280;24605;50.092;9.182;2023-01-31T03:21:24;98714.38;;;1.41;100.00
38852;BME280;24605;50.092;9.182;2023-01-31T03:23:53;98688.06;;;1.34;100.00
38852;BME280;24605;50.092;9.182;2023-01-31T03:26:22;98702.38;;;1.40;100.00
38852;BME280;24605;50.092;9.182;2023-01-31T03:28:51;98700.91;;;1.36;100.00
38852;BME280;24605;50.092;9.182;2023-01-31T03:31:25;98679.47;;;1.19;100.00
38852;BME280;24605;50.092;9.182;2023-01-31T03:33:55;98705.50;;;1.31;100.00
38852;BME280;24605;50.092;9.182;2023-01-31T03:36:32;98703.13;;;1.28;100.00
38852;BME280;24605;50.092;9.182;2023-01-31T03:39:09;98730.03;;;1.38;100.00
38852;BME280;24605;50.092;9.182;2023-01-31T03:41:45;98667.75;;;0.99;100.00
38852;BME280;24605;50.092;9.182;2023-01-31T03:44:17;98732.56;;;1.39;100.00
38852;BME280;24605;50.092;9.182;2023-01-31T03:46:48;98694.16;;;1.19;100.00
38852;BME280;24605;50.092;9.182;2023-01-31T03:49:18;98735.31;;;1.36;100.00
38852;BME280;24605;50.092;9.182;2023-01-31T03:51:51;98729.22;;;1.37;100.00
38852;BME280;24605;50.092;9.182;2023-01-31T03:54:24;98723.88;;;1.40;100.00
38852;BME280;24605;50.092;9.182;2023-01-31T03:56:56;98727.38;;;1.39;100.00
38852;BME280;24605;50.092;9.182;2023-01-31T03:59:26;98704.47;;;1.33;100.00
38852;BME280;24605;50.092;9.182;2023-01-31T04:01:57;98702.28;;;1.27;100.00
38852;BME280;24605;50.092;9.182;2023-01-31T04:04:27;98710.00;;;1.27;100.00
38852;BME280;24605;50.092;9.182;2023-01-31T04:06:59;98706.03;;;1.21;100.00
38852;BME280;24605;50.092;9.182;2023-01-31T04:09:26;98707.16;;;1.17;100.00
38852;BME280;24605;50.092;9.182;2023-01-31T04:11:52;98729.28;;;1.21;100.00
38852;BME280;24605;50.092;9.182;2023-01-31T04:14:19;98624.81;;;0.53;100.00
38852;BME280;24605;50.092;9.182;2023-01-31T04:16:46;98723.63;;;1.15;100.00
38852;BME280;24605;50.092;9.182;2023-01-31T04:19:13;98719.16;;;1.18;100.00
38852;BME280;24605;50.092;9.182;2023-01-31T04:21:39;98720.59;;;1.08;100.00
38852;BME280;24605;50.092;9.182;2023-01-31T04:24:08;98719.03;;;1.05;100.00
38852;BME280;24605;50.092;9.182;2023-01-31T04:26:35;98728.41;;;1.06;100.00
38852;BME280;24605;50.092;9.182;2023-01-31T04:29:02;98672.69;;;0.73;100.00
38852;BME280;24605;50.092;9.182;2023-01-31T04:31:29;98686.06;;;0.80;100.00
38852;BME280;24605;50.092;9.182;2023-01-31T04:33:56;98730.94;;;1.08;100.00
38852;BME280;24605;50.092;9.182;2023-01-31T04:36:24;98702.06;;;1.01;100.00
38852;BME280;24605;50.092;9.182;2023-01-31T04:38:51;98645.47;;;0.68;100.00
38852;BME280;24605;50.092;9.182;2023-01-31T04:41:19;98691.81;;;1.00;100.00
38852;BME280;24605;50.092;9.182;2023-01-31T04:43:45;98711.09;;;1.08;100.00
38852;BME280;24605;50.092;9.182;2023-01-31T04:46:12;98700.22;;;1.03;100.00
38852;BME280;24605;50.092;9.182;2023-01-31T04:48:39;98714.25;;;1.14;100.00
38852;BME280;24605;50.092;9.182;2023-01-31T04:51:06;98628.53;;;0.64;100.00
38852;BME280;24605;50.092;9.182;2023-01-31T04:53:32;98664.13;;;0.87;100.00
38852;BME280;24605;50.092;9.182;2023-01-31T04:55:59;98676.41;;;0.98;100.00
38852;BME280;24605;50.092;9.182;2023-01-31T04:58:27;98693.94;;;1.07;100.00
38852;BME280;24605;50.092;9.182;2023-01-31T05:00:54;98689.63;;;1.08;100.00
38852;BME280;24605;50.092;9.182;2023-01-31T05:03:21;98699.03;;;1.23;100.00
38852;BME280;24605;50.092;9.182;2023-01-31T05:05:48;98698.78;;;1.28;100.00
38852;BME280;24605;50.092;9.182;2023-01-31T05:08:15;98668.03;;;1.09;100.00
38852;BME280;24605;50.092;9.182;2023-01-31T05:10:41;98685.97;;;1.27;100.00
38852;BME280;24605;50.092;9.182;2023-01-31T05:13:08;98700.69;;;1.24;100.00
38852;BME280;24605;50.092;9.182;2023-01-31T05:15:38;98585.84;;;0.58;100.00
38852;BME280;24605;50.092;9.182;2023-01-31T05:18:05;98647.94;;;1.00;100.00
38852;BME280;24605;50.092;9.182;2023-01-31T05:20:33;98695.09;;;1.32;100.00
38852;BME280;24605;50.092;9.182;2023-01-31T05:23:02;98692.84;;;1.26;100.00
38852;BME280;24605;50.092;9.182;2023-01-31T05:25:29;98655.75;;;0.98;100.00
38852;BME280;24605;50.092;9.182;2023-01-31T05:27:56;98685.00;;;1.13;100.00
38852;BME280;24605;50.092;9.182;2023-01-31T05:30:22;98700.59;;;1.26;100.00
38852;BME280;24605;50.092;9.182;2023-01-31T05:32:50;98689.47;;;1.25;100.00
38852;BME280;24605;50.092;9.182;2023-01-31T05:35:17;98604.84;;;0.71;100.00
38852;BME280;24605;50.092;9.182;2023-01-31T05:37:44;98647.09;;;0.99;100.00
38852;BME280;24605;50.092;9.182;2023-01-31T05:40:11;98674.97;;;1.23;100.00
38852;BME280;24605;50.092;9.182;2023-01-31T05:42:38;98693.13;;;1.21;100.00
38852;BME280;24605;50.092;9.182;2023-01-31T05:45:07;98677.34;;;1.12;100.00
38852;BME280;24605;50.092;9.182;2023-01-31T05:47:34;98676.34;;;1.00;100.00
38852;BME280;24605;50.092;9.182;2023-01-31T05:50:02;98677.53;;;0.94;100.00
38852;BME280;24605;50.092;9.182;2023-01-31T05:52:29;98673.44;;;0.90;100.00
38852;BME280;24605;50.092;9.182;2023-01-31T05:54:56;98667.38;;;0.91;100.00
38852;BME280;24605;50.092;9.182;2023-01-31T05:57:22;98661.66;;;0.86;100.00
38852;BME280;24605;50.092;9.182;2023-01-31T05:59:49;98665.69;;;0.75;100.00
38852;BME280;24605;50.092;9.182;2023-01-31T06:02:15;98648.25;;;0.65;100.00
38852;BME280;24605;50.092;9.182;2023-01-31T06:04:42;98639.91;;;0.59;100.00
38852;BME280;24605;50.092;9.182;2023-01-31T06:07:10;98651.66;;;0.65;100.00
38852;BME280;24605;50.092;9.182;2023-01-31T06:09:36;98659.69;;;0.75;100.00
38852;BME280;24605;50.092;9.182;2023-01-31T06:12:05;98665.47;;;0.64;100.00
38852;BME280;24605;50.092;9.182;2023-01-31T06:14:32;98642.78;;;0.55;100.00
38852;BME280;24605;50.092;9.182;2023-01-31T06:16:58;98672.44;;;0.62;100.00
38852;BME280;24605;50.092;9.182;2023-01-31T06:19:24;98678.94;;;0.69;100.00
38852;BME280;24605;50.092;9.182;2023-01-31T06:21:51;98672.03;;;0.70;100.00
38852;BME280;24605;50.092;9.182;2023-01-31T06:24:19;98651.81;;;0.62;100.00
38852;BME280;24605;50.092;9.182;2023-01-31T06:26:46;98656.25;;;0.60;100.00
38852;BME280;24605;50.092;9.182;2023-01-31T06:29:12;98669.53;;;0.68;100.00
38852;BME280;24605;50.092;9.182;2023-01-31T06:31:42;98648.78;;;0.55;100.00
38852;BME280;24605;50.092;9.182;2023-01-31T06:34:10;98669.06;;;0.61;100.00
38852;BME280;24605;50.092;9.182;2023-01-31T06:36:36;98673.78;;;0.69;100.00
38852;BME280;24605;50.092;9.182;2023-01-31T06:39:03;98626.50;;;0.38;100.00
38852;BME280;24605;50.092;9.182;2023-01-31T06:41:31;98680.41;;;0.73;100.00
38852;BME280;24605;50.092;9.182;2023-01-31T06:43:57;98631.50;;;0.41;100.00
38852;BME280;24605;50.092;9.182;2023-01-31T06:46:24;98635.56;;;0.45;100.00
38852;BME280;24605;50.092;9.182;2023-01-31T06:48:50;98551.78;;;-0.08;100.00
38852;BME280;24605;50.092;9.182;2023-01-31T06:51:17;98645.97;;;0.44;100.00
38852;BME280;24605;50.092;9.182;2023-01-31T06:53:44;98685.78;;;0.70;100.00
38852;BME280;24605;50.092;9.182;2023-01-31T06:56:10;98691.31;;;0.78;100.00
38852;BME280;24605;50.092;9.182;2023-01-31T06:58:38;98652.91;;;0.58;100.00
38852;BME280;24605;50.092;9.182;2023-01-31T07:01:07;98666.13;;;0.68;100.00
38852;BME280;24605;50.092;9.182;2023-01-31T07:03:34;98688.28;;;0.86;100.00
38852;BME280;24605;50.092;9.182;2023-01-31T07:06:00;98684.78;;;0.87;100.00
38852;BME280;24605;50.092;9.182;2023-01-31T07:08:27;98664.66;;;0.78;100.00
38852;BME280;24605;50.092;9.182;2023-01-31T07:10:54;98686.94;;;0.95;100.00
38852;BME280;24605;50.092;9.182;2023-01-31T07:13:20;98681.03;;;0.93;100.00
38852;BME280;24605;50.092;9.182;2023-01-31T07:15:48;98650.03;;;0.78;100.00
38852;BME280;24605;50.092;9.182;2023-01-31T07:18:14;98698.19;;;1.08;100.00
38852;BME280;24605;50.092;9.182;2023-01-31T07:20:41;98639.13;;;0.73;100.00
38852;BME280;24605;50.092;9.182;2023-01-31T07:23:08;98702.91;;;1.16;100.00
38852;BME280;24605;50.092;9.182;2023-01-31T07:25:35;98664.63;;;0.94;100.00
38852;BME280;24605;50.092;9.182;2023-01-31T07:28:02;98715.28;;;1.25;100.00
38852;BME280;24605;50.092;9.182;2023-01-31T07:30:28;98707.44;;;1.27;100.00
38852;BME280;24605;50.092;9.182;2023-01-31T07:32:57;98712.59;;;1.27;100.00
38852;BME280;24605;50.092;9.182;2023-01-31T07:35:23;98674.56;;;1.00;100.00
38852;BME280;24605;50.092;9.182;2023-01-31T07:37:50;98675.41;;;1.01;100.00
38852;BME280;24605;50.092;9.182;2023-01-31T07:40:17;98678.53;;;1.06;100.00
38852;BME280;24605;50.092;9.182;2023-01-31T07:42:44;98720.25;;;1.29;100.00
38852;BME280;24605;50.092;9.182;2023-01-31T07:45:12;98685.75;;;1.15;100.00
38852;BME280;24605;50.092;9.182;2023-01-31T07:47:38;98730.69;;;1.41;100.00
38852;BME280;24605;50.092;9.182;2023-01-31T07:50:09;98719.81;;;1.36;100.00
38852;BME280;24605;50.092;9.182;2023-01-31T07:52:35;98696.34;;;1.25;100.00
38852;BME280;24605;50.092;9.182;2023-01-31T07:55:02;98718.63;;;1.42;100.00
38852;BME280;24605;50.092;9.182;2023-01-31T07:57:30;98696.38;;;1.39;100.00
38852;BME280;24605;50.092;9.182;2023-01-31T07:59:56;98715.59;;;1.50;100.00
38852;BME280;24605;50.092;9.182;2023-01-31T08:02:23;98707.25;;;1.59;100.00
38852;BME280;24605;50.092;9.182;2023-01-31T08:05:08;98719.06;;;1.63;100.00
38852;BME280;24605;50.092;9.182;2023-01-31T08:07:35;98726.38;;;1.71;100.00
38852;BME280;24605;50.092;9.182;2023-01-31T08:10:03;98647.66;;;1.19;100.00
38852;BME280;24605;50.092;9.182;2023-01-31T08:12:29;98722.03;;;1.71;100.00
38852;BME280;24605;50.092;9.182;2023-01-31T08:14:56;98636.59;;;1.31;100.00
38852;BME280;24605;50.092;9.182;2023-01-31T08:17:22;98724.78;;;1.83;100.00
38852;BME280;24605;50.092;9.182;2023-01-31T08:19:49;98712.88;;;1.80;100.00
38852;BME280;24605;50.092;9.182;2023-01-31T08:22:17;98649.69;;;1.43;100.00
38852;BME280;24605;50.092;9.182;2023-01-31T08:24:43;98711.88;;;1.83;100.00
38852;BME280;24605;50.092;9.182;2023-01-31T08:27:09;98713.88;;;1.78;100.00
38852;BME280;24605;50.092;9.182;2023-01-31T08:29:36;98687.31;;;1.76;100.00
38852;BME280;24605;50.092;9.182;2023-01-31T08:32:03;98707.88;;;1.92;100.00
38852;BME280;24605;50.092;9.182;2023-01-31T08:34:29;98693.38;;;1.89;100.00
38852;BME280;24605;50.092;9.182;2023-01-31T08:36:56;98712.28;;;2.04;100.00
38852;BME280;24605;50.092;9.182;2023-01-31T08:39:24;98727.97;;;2.15;100.00
38852;BME280;24605;50.092;9.182;2023-01-31T08:41:50;98714.69;;;2.07;100.00
38852;BME280;24605;50.092;9.182;2023-01-31T08:44:17;98713.03;;;1.92;100.00
38852;BME280;24605;50.092;9.182;2023-01-31T08:46:43;98718.66;;;1.98;100.00
38852;BME280;24605;50.092;9.182;2023-01-31T08:49:10;98687.50;;;1.72;100.00
38852;BME280;24605;50.092;9.182;2023-01-31T08:51:37;98721.06;;;2.01;100.00
38852;BME280;24605;50.092;9.182;2023-01-31T08:54:04;98723.28;;;2.08;100.00
38852;BME280;24605;50.092;9.182;2023-01-31T08:56:31;98716.50;;;2.19;100.00
38852;BME280;24605;50.092;9.182;2023-01-31T08:58:58;98698.84;;;2.12;100.00
38852;BME280;24605;50.092;9.182;2023-01-31T09:01:24;98677.88;;;1.89;100.00
38852;BME280;24605;50.092;9.182;2023-01-31T09:03:51;98691.16;;;1.97;100.00
38852;BME280;24605;50.092;9.182;2023-01-31T09:06:22;98714.69;;;2.07;100.00
38852;BME280;24605;50.092;9.182;2023-01-31T09:08:49;98738.59;;;1.96;100.00
38852;BME280;24605;50.092;9.182;2023-01-31T09:11:15;98722.00;;;1.86;100.00
38852;BME280;24605;50.092;9.182;2023-01-31T09:13:45;98676.63;;;1.67;100.00
38852;BME280;24605;50.092;9.182;2023-01-31T09:16:13;98705.22;;;1.64;100.00
38852;BME280;24605;50.092;9.182;2023-01-31T09:18:40;98736.50;;;1.74;100.00
38852;BME280;24605;50.092;9.182;2023-01-31T09:21:08;98726.66;;;1.66;100.00
38852;BME280;24605;50.092;9.182;2023-01-31T09:23:36;98715.00;;;1.74;100.00
38852;BME280;24605;50.092;9.182;2023-01-31T09:26:03;98702.38;;;1.69;100.00
38852;BME280;24605;50.092;9.182;2023-01-31T09:28:29;98711.88;;;1.54;100.00
38852;BME280;24605;50.092;9.182;2023-01-31T09:31:02;98696.00;;;1.46;100.00
38852;BME280;24605;50.092;9.182;2023-01-31T09:33:30;98728.66;;;1.61;100.00
38852;BME280;24605;50.092;9.182;2023-01-31T09:35:58;98700.88;;;1.65;100.00
38852;BME280;24605;50.092;9.182;2023-01-31T09:38:24;98642.31;;;1.36;100.00
38852;BME280;24605;50.092;9.182;2023-01-31T09:40:52;98711.50;;;1.75;100.00
38852;BME280;24605;50.092;9.182;2023-01-31T09:43:23;98663.81;;;1.51;100.00
38852;BME280;24605;50.092;9.182;2023-01-31T09:45:52;98717.78;;;1.85;100.00
38852;BME280;24605;50.092;9.182;2023-01-31T09:48:26;98721.22;;;2.13;100.00
38852;BME280;24605;50.092;9.182;2023-01-31T09:50:55;98666.94;;;1.71;100.00
38852;BME280;24605;50.092;9.182;2023-01-31T09:53:29;98734.69;;;2.18;100.00
38852;BME280;24605;50.092;9.182;2023-01-31T09:56:00;98750.25;;;1.89;100.00
38852;BME280;24605;50.092;9.182;2023-01-31T09:58:35;98704.59;;;1.61;100.00
38852;BME280;24605;50.092;9.182;2023-01-31T10:01:10;98699.69;;;1.41;100.00
38852;BME280;24605;50.092;9.182;2023-01-31T10:03:50;98706.72;;;1.54;100.00
38852;BME280;24605;50.092;9.182;2023-01-31T10:06:24;98696.00;;;1.46;100.00
38852;BME280;24605;50.092;9.182;2023-01-31T10:08:58;98702.38;;;1.69;100.00
38852;BME280;24605;50.092;9.182;2023-01-31T10:11:30;98704.22;;;1.67;100.00
38852;BME280;24605;50.092;9.182;2023-01-31T10:14:05;98709.75;;;1.61;100.00
38852;BME280;24605;50.092;9.182;2023-01-31T10:16:34;98681.78;;;1.53;100.00
38852;BME280;24605;50.092;9.182;2023-01-31T10:19:07;98704.88;;;1.56;100.00
38852;BME280;24605;50.092;9.182;2023-01-31T10:21:39;98678.47;;;1.65;100.00
38852;BME280;24605;50.092;9.182;2023-01-31T10:24:12;98687.31;;;1.76;100.00
38852;BME280;24605;50.092;9.182;2023-01-31T10:26:43;98679.56;;;1.61;100.00
38852;BME280;24605;50.092;9.182;2023-01-31T10:29:16;98669.53;;;1.42;100.00
38852;BME280;24605;50.092;9.182;2023-01-31T10:31:50;98697.09;;;1.70;100.00
38852;BME280;24605;50.092;9.182;2023-01-31T10:34:22;98703.38;;;1.66;100.00
38852;BME280;24605;50.092;9.182;2023-01-31T10:36:54;98712.97;;;1.64;100.00
38852;BME280;24605;50.092;9.182;2023-01-31T10:39:25;98675.16;;;1.49;100.00
38852;BME280;24605;50.092;9.182;2023-01-31T10:42:08;98687.16;;;1.50;100.00
38852;BME280;24605;50.092;9.182;2023-01-31T10:44:43;98682.16;;;1.61;100.00
38852;BME280;24605;50.092;9.182;2023-01-31T10:47:13;98624.06;;;1.39;100.00
38852;BME280;24605;50.092;9.182;2023-01-31T10:49:44;98673.00;;;1.70;100.00
38852;BME280;24605;50.092;9.182;2023-01-31T10:52:31;98621.47;;;1.39;100.00
38852;BME280;24605;50.092;9.182;2023-01-31T10:55:23;98631.38;;;1.60;100.00
38852;BME280;24605;50.092;9.182;2023-01-31T10:57:53;98652.97;;;1.74;100.00
38852;BME280;24605;50.092;9.182;2023-01-31T11:00:22;98644.16;;;1.49;100.00
38852;BME280;24605;50.092;9.182;2023-01-31T11:02:51;98624.50;;;1.32;100.00
38852;BME280;24605;50.092;9.182;2023-01-31T11:05:22;98640.50;;;1.66;100.00
38852;BME280;24605;50.092;9.182;2023-01-31T11:07:49;98631.22;;;1.63;100.00
38852;BME280;24605;50.092;9.182;2023-01-31T11:10:22;98609.94;;;1.45;100.00
38852;BME280;24605;50.092;9.182;2023-01-31T11:12:54;98576.16;;;1.34;100.00
38852;BME280;24605;50.092;9.182;2023-01-31T11:15:23;98603.97;;;1.58;100.00
38852;BME280;24605;50.092;9.182;2023-01-31T11:17:51;98608.41;;;1.70;100.00
38852;BME280;24605;50.092;9.182;2023-01-31T11:20:24;98627.19;;;1.72;100.00
38852;BME280;24605;50.092;9.182;2023-01-31T11:22:53;98588.59;;;1.56;100.00
38852;BME280;24605;50.092;9.182;2023-01-31T11:25:22;98614.16;;;1.88;100.00
38852;BME280;24605;50.092;9.182;2023-01-31T11:27:53;98592.50;;;1.76;100.00
38852;BME280;24605;50.092;9.182;2023-01-31T11:30:22;98595.72;;;1.80;100.00
38852;BME280;24605;50.092;9.182;2023-01-31T11:32:51;98583.53;;;1.82;100.00
38852;BME280;24605;50.092;9.182;2023-01-31T11:35:25;98606.63;;;1.85;100.00
38852;BME280;24605;50.092;9.182;2023-01-31T11:37:54;98564.84;;;1.64;100.00
38852;BME280;24605;50.092;9.182;2023-01-31T11:40:26;98582.63;;;1.68;100.00
38852;BME280;24605;50.092;9.182;2023-01-31T11:42:55;98594.91;;;1.79;100.00
38852;BME280;24605;50.092;9.182;2023-01-31T11:45:24;98572.06;;;1.86;100.00
38852;BME280;24605;50.092;9.182;2023-01-31T11:47:54;98543.63;;;1.86;100.00
38852;BME280;24605;50.092;9.182;2023-01-31T11:50:26;98550.25;;;1.90;100.00
38852;BME280;24605;50.092;9.182;2023-01-31T11:52:56;98542.69;;;1.87;100.00
38852;BME280;24605;50.092;9.182;2023-01-31T11:55:24;98527.69;;;1.79;100.00
38852;BME280;24605;50.092;9.182;2023-01-31T11:57:56;98536.81;;;1.85;100.00
38852;BME280;24605;50.092;9.182;2023-01-31T12:00:26;98516.31;;;1.82;100.00
38852;BME280;24605;50.092;9.182;2023-01-31T12:02:59;98526.59;;;1.96;100.00
38852;BME280;24605;50.092;9.182;2023-01-31T12:05:34;98470.97;;;1.63;100.00
38852;BME280;24605;50.092;9.182;2023-01-31T12:08:02;98524.88;;;2.10;100.00
38852;BME280;24605;50.092;9.182;2023-01-31T12:10:35;98407.38;;;1.48;100.00
38852;BME280;24605;50.092;9.182;2023-01-31T12:13:12;98424.88;;;1.57;100.00
38852;BME280;24605;50.092;9.182;2023-01-31T12:15:45;98518.47;;;2.15;100.00
38852;BME280;24605;50.092;9.182;2023-01-31T12:18:19;98522.31;;;2.23;100.00
38852;BME280;24605;50.092;9.182;2023-01-31T12:20:53;98512.56;;;2.13;100.00
38852;BME280;24605;50.092;9.182;2023-01-31T12:23:32;98516.88;;;2.13;100.00
38852;BME280;24605;50.092;9.182;2023-01-31T12:26:08;98521.97;;;2.14;100.00
38852;BME280;24605;50.092;9.182;2023-01-31T12:28:49;98515.34;;;2.23;100.00
38852;BME280;24605;50.092;9.182;2023-01-31T12:31:38;98507.16;;;2.16;100.00
38852;BME280;24605;50.092;9.182;2023-01-31T12:34:25;98499.41;;;2.16;100.00
38852;BME280;24605;50.092;9.182;2023-01-31T12:37:07;98466.50;;;2.18;100.00
38852;BME280;24605;50.092;9.182;2023-01-31T12:39:44;98450.19;;;2.18;100.00
38852;BME280;24605;50.092;9.182;2023-01-31T12:42:26;98437.69;;;2.25;100.00
38852;BME280;24605;50.092;9.182;2023-01-31T12:45:06;98439.53;;;2.23;100.00
38852;BME280;24605;50.092;9.182;2023-01-31T12:47:49;98444.28;;;2.16;100.00
38852;BME280;24605;50.092;9.182;2023-01-31T12:50:27;98464.78;;;2.32;100.00
38852;BME280;24605;50.092;9.182;2023-01-31T12:53:19;98481.53;;;2.52;100.00
38852;BME280;24605;50.092;9.182;2023-01-31T12:56:01;98473.97;;;2.49;100.00
38852;BME280;24605;50.092;9.182;2023-01-31T12:58:42;98451.53;;;2.37;100.00
38852;BME280;24605;50.092;9.182;2023-01-31T13:01:12;98445.50;;;2.36;100.00
38852;BME280;24605;50.092;9.182;2023-01-31T13:03:57;98416.63;;;2.29;100.00
38852;BME280;24605;50.092;9.182;2023-01-31T13:06:29;98429.34;;;2.45;100.00
38852;BME280;24605;50.092;9.182;2023-01-31T13:09:02;98417.25;;;2.46;100.00
38852;BME280;24605;50.092;9.182;2023-01-31T13:11:33;98431.44;;;2.53;100.00
38852;BME280;24605;50.092;9.182;2023-01-31T13:14:02;98385.72;;;2.28;100.00
38852;BME280;24605;50.092;9.182;2023-01-31T13:16:33;98408.66;;;2.45;100.00
38852;BME280;24605;50.092;9.182;2023-01-31T13:19:04;98434.19;;;2.63;100.00